Fahud, Oman
Current Conditions -  °F | °C
As of 3:50 AM on Thursday 23 Oct 2014 (Local Time) from EQMN Reporting Station
Clear Clear  
Wind Chill: 81°   Ceiling: Unl
Heat Index: 81°   Visibility: 6mi
Dew Point: 43°   Wind: 6mph
Humidity: 26%   Direction: 230°SW
Pressure: 29.88"   Gusts: NA
Location:  22.35°N, 56.48°E
Report Text: EQMN 222350Z 23005KT 9999 SKC 27/06 Q1012 BLU NOSIG
Loading
Personal Weather Stations






























Interactive Weather Map
Tropical Storm Tracking
New forecast layout! Learn more

10-Day Weather Forecast

Advertisements
Track Severe Weather on mobile